createdAt,value
2023-04-18T00:00:09.876Z,1029.24
2023-04-18T00:00:19.334Z,1029.29
2023-04-18T00:00:28.740Z,1029.29
2023-04-18T00:00:38.103Z,1029.24
2023-04-18T00:00:47.496Z,1029.19
2023-04-18T00:01:06.247Z,1029.21
2023-04-18T00:01:15.647Z,1029.28
2023-04-18T00:01:25.032Z,1029.20
2023-04-18T00:01:34.399Z,1029.19
2023-04-18T00:01:43.826Z,1029.22
2023-04-18T00:01:53.333Z,1029.28
2023-04-18T00:02:12.054Z,1029.25
2023-04-18T00:02:21.426Z,1029.21
2023-04-18T00:02:30.789Z,1029.20
2023-04-18T00:02:40.334Z,1029.21
2023-04-18T00:02:49.706Z,1029.27
2023-04-18T00:03:00.904Z,1029.26
2023-04-18T00:03:17.845Z,1029.26
2023-04-18T00:03:27.249Z,1029.17
2023-04-18T00:03:36.675Z,1029.25
2023-04-18T00:03:46.098Z,1029.22
2023-04-18T00:03:58.419Z,1029.19
2023-04-18T00:04:07.804Z,1029.17
2023-04-18T00:04:26.485Z,1029.19
2023-04-18T00:04:35.786Z,1029.28
2023-04-18T00:04:45.238Z,1029.31
2023-04-18T00:04:54.687Z,1029.25
2023-04-18T00:05:03.946Z,1029.17
2023-04-18T00:05:13.289Z,1029.24
2023-04-18T00:05:32.041Z,1029.17
2023-04-18T00:05:41.482Z,1029.22
2023-04-18T00:05:50.848Z,1029.26
2023-04-18T00:06:00.227Z,1029.28
2023-04-18T00:06:09.630Z,1029.29
2023-04-18T00:06:19.006Z,1029.28
2023-04-18T00:06:37.791Z,1029.27
2023-04-18T00:06:47.204Z,1029.25
2023-04-18T00:06:56.563Z,1029.27
2023-04-18T00:07:05.939Z,1029.27
2023-04-18T00:07:15.320Z,1029.25
2023-04-18T00:07:24.700Z,1029.26
2023-04-18T00:07:43.455Z,1029.17
2023-04-18T00:07:52.865Z,1029.28
2023-04-18T00:08:02.241Z,1029.21
2023-04-18T00:08:11.626Z,1029.32
2023-04-18T00:08:21.008Z,1029.21
2023-04-18T00:08:30.386Z,1029.18
2023-04-18T00:08:49.162Z,1029.28
2023-04-18T00:08:58.648Z,1029.26
2023-04-18T00:09:08.051Z,1029.25
2023-04-18T00:09:17.393Z,1029.29
2023-04-18T00:09:26.778Z,1029.26
2023-04-18T00:09:36.202Z,1029.30
2023-04-18T00:09:54.874Z,1029.23
2023-04-18T00:10:04.277Z,1029.27
2023-04-18T00:10:13.716Z,1029.33
2023-04-18T00:10:23.059Z,1029.24
2023-04-18T00:10:32.454Z,1029.15
2023-04-18T00:10:41.865Z,1029.25
2023-04-18T00:11:00.618Z,1029.26
2023-04-18T00:11:09.984Z,1029.31
2023-04-18T00:11:19.388Z,1029.35
2023-04-18T00:11:28.801Z,1029.27
2023-04-18T00:11:38.174Z,1029.24
2023-04-18T00:11:47.561Z,1029.27
2023-04-18T00:12:06.321Z,1029.27
2023-04-18T00:12:15.682Z,1029.26
2023-04-18T00:12:25.064Z,1029.22
2023-04-18T00:12:34.556Z,1029.23
2023-04-18T00:12:43.846Z,1029.33
2023-04-18T00:12:53.227Z,1029.26
2023-04-18T00:13:12.019Z,1029.23
2023-04-18T00:13:21.425Z,1029.26
2023-04-18T00:13:30.818Z,1029.25
2023-04-18T00:13:40.268Z,1029.25
2023-04-18T00:13:49.657Z,1029.20
2023-04-18T00:13:59.091Z,1029.33
2023-04-18T00:14:17.860Z,1029.23
2023-04-18T00:14:27.249Z,1029.27
2023-04-18T00:14:36.638Z,1029.31
2023-04-18T00:14:46.030Z,1029.24
2023-04-18T00:14:55.416Z,1029.27
2023-04-18T00:15:04.796Z,1029.23
2023-04-18T00:15:23.554Z,1029.19
2023-04-18T00:15:32.929Z,1029.19
2023-04-18T00:15:42.303Z,1029.21
2023-04-18T00:15:51.686Z,1029.31
2023-04-18T00:16:01.088Z,1029.21
2023-04-18T00:16:10.467Z,1029.16
2023-04-18T00:16:29.247Z,1029.26
2023-04-18T00:16:38.672Z,1029.33
2023-04-18T00:16:48.085Z,1029.27
2023-04-18T00:16:57.553Z,1029.31
2023-04-18T00:17:06.928Z,1029.29
2023-04-18T00:17:16.204Z,1029.28
2023-04-18T00:17:35.010Z,1029.27
2023-04-18T00:17:44.389Z,1029.28
2023-04-18T00:17:53.759Z,1029.28
2023-04-18T00:18:03.237Z,1029.26
2023-04-18T00:18:12.492Z,1029.27
2023-04-18T00:18:21.886Z,1029.27
2023-04-18T00:18:40.618Z,1029.25
2023-04-18T00:18:50.002Z,1029.27
2023-04-18T00:18:59.405Z,1029.26
2023-04-18T00:19:08.793Z,1029.28
2023-04-18T00:19:18.170Z,1029.30
2023-04-18T00:19:27.566Z,1029.21
2023-04-18T00:19:46.326Z,1029.23
2023-04-18T00:19:55.703Z,1029.26
2023-04-18T00:20:05.093Z,1029.30
2023-04-18T00:20:14.467Z,1029.29
2023-04-18T00:20:23.839Z,1029.21
2023-04-18T00:20:33.224Z,1029.35
2023-04-18T00:20:52.012Z,1029.30
2023-04-18T00:21:01.459Z,1029.25
2023-04-18T00:21:10.838Z,1029.28
2023-04-18T00:21:20.206Z,1029.27
2023-04-18T00:21:29.588Z,1029.27
2023-04-18T00:21:38.968Z,1029.31
2023-04-18T00:21:57.742Z,1029.28
2023-04-18T00:22:07.153Z,1029.25
2023-04-18T00:22:16.536Z,1029.28
2023-04-18T00:22:25.960Z,1029.27
2023-04-18T00:22:35.336Z,1029.29
2023-04-18T00:22:44.719Z,1029.27
2023-04-18T00:23:03.528Z,1029.23
2023-04-18T00:23:13.522Z,1029.33
2023-04-18T00:23:22.344Z,1029.32
2023-04-18T00:23:31.694Z,1029.25
2023-04-18T00:23:41.082Z,1029.30
2023-04-18T00:23:50.450Z,1029.33
2023-04-18T00:24:09.289Z,1029.30
2023-04-18T00:24:18.672Z,1029.35
2023-04-18T00:24:28.049Z,1029.27
2023-04-18T00:24:37.413Z,1029.26
2023-04-18T00:24:46.800Z,1029.27
2023-04-18T00:24:56.178Z,1029.33
2023-04-18T00:25:14.937Z,1029.26
2023-04-18T00:25:24.296Z,1029.20
2023-04-18T00:25:33.755Z,1029.28
2023-04-18T00:25:43.129Z,1029.26
2023-04-18T00:25:52.516Z,1029.25
2023-04-18T00:26:01.907Z,1029.27
2023-04-18T00:26:20.782Z,1029.25
2023-04-18T00:26:30.165Z,1029.29
2023-04-18T00:26:39.557Z,1029.22
2023-04-18T00:26:48.954Z,1029.26
2023-04-18T00:26:58.397Z,1029.27
2023-04-18T00:27:07.835Z,1029.26
2023-04-18T00:27:26.658Z,1029.30
2023-04-18T00:27:36.044Z,1029.31
2023-04-18T00:27:45.440Z,1029.36
2023-04-18T00:27:54.815Z,1029.19
2023-04-18T00:28:04.183Z,1029.28
2023-04-18T00:28:13.557Z,1029.28
2023-04-18T00:28:32.328Z,1029.30
2023-04-18T00:28:41.715Z,1029.26
2023-04-18T00:28:51.112Z,1029.28
2023-04-18T00:29:00.514Z,1029.23
2023-04-18T00:29:09.915Z,1029.31
2023-04-18T00:29:19.275Z,1029.23
2023-04-18T00:29:38.040Z,1029.19
2023-04-18T00:29:47.419Z,1029.29
2023-04-18T00:29:56.813Z,1029.31
2023-04-18T00:30:06.217Z,1029.31
2023-04-18T00:30:15.576Z,1029.24
2023-04-18T00:30:24.969Z,1029.25
2023-04-18T00:30:43.778Z,1029.23
2023-04-18T00:30:53.144Z,1029.25
2023-04-18T00:31:02.531Z,1029.22
2023-04-18T00:31:11.890Z,1029.21
2023-04-18T00:31:21.319Z,1029.27
2023-04-18T00:31:30.646Z,1029.23
2023-04-18T00:31:49.363Z,1029.21
2023-04-18T00:31:58.727Z,1029.22
2023-04-18T00:32:08.115Z,1029.26
2023-04-18T00:32:17.519Z,1029.23
2023-04-18T00:32:26.922Z,1029.30
2023-04-18T00:32:36.296Z,1029.33
2023-04-18T00:32:55.102Z,1029.26
2023-04-18T00:33:04.538Z,1029.33
2023-04-18T00:33:13.825Z,1029.26
2023-04-18T00:33:23.202Z,1029.21
2023-04-18T00:33:32.606Z,1029.34
2023-04-18T00:33:42.046Z,1029.27
2023-04-18T00:34:00.858Z,1029.24
2023-04-18T00:34:10.231Z,1029.24
2023-04-18T00:34:19.597Z,1029.18
2023-04-18T00:34:28.983Z,1029.26
2023-04-18T00:34:38.357Z,1029.23
2023-04-18T00:34:47.752Z,1029.31
2023-04-18T00:35:06.496Z,1029.22
2023-04-18T00:35:15.860Z,1029.20
2023-04-18T00:35:25.238Z,1029.26
2023-04-18T00:35:34.621Z,1029.29
2023-04-18T00:35:44.011Z,1029.27
2023-04-18T00:35:53.394Z,1029.22
2023-04-18T00:36:12.147Z,1029.19
2023-04-18T00:36:21.574Z,1029.25
2023-04-18T00:36:30.956Z,1029.27
2023-04-18T00:36:40.344Z,1029.25
2023-04-18T00:36:49.738Z,1029.27
2023-04-18T00:36:59.166Z,1029.24
2023-04-18T00:37:17.982Z,1029.35
2023-04-18T00:37:27.420Z,1029.20
2023-04-18T00:37:36.804Z,1029.20
2023-04-18T00:37:46.189Z,1029.24
2023-04-18T00:37:55.574Z,1029.17
2023-04-18T00:38:04.953Z,1029.23
2023-04-18T00:38:23.713Z,1029.23
2023-04-18T00:38:33.108Z,1029.26
2023-04-18T00:38:42.488Z,1029.22
2023-04-18T00:38:51.867Z,1029.18
2023-04-18T00:39:01.293Z,1029.21
2023-04-18T00:39:10.698Z,1029.27
2023-04-18T00:39:29.460Z,1029.22
2023-04-18T00:39:38.847Z,1029.21
2023-04-18T00:39:48.225Z,1029.35
2023-04-18T00:39:57.632Z,1029.21
2023-04-18T00:40:06.999Z,1029.23
2023-04-18T00:40:16.372Z,1029.26
2023-04-18T00:40:35.165Z,1029.21
2023-04-18T00:40:44.583Z,1029.27
2023-04-18T00:40:53.973Z,1029.22
2023-04-18T00:41:03.369Z,1029.23
2023-04-18T00:41:12.747Z,1029.22
2023-04-18T00:41:22.137Z,1029.19
2023-04-18T00:41:40.931Z,1029.18
2023-04-18T00:41:50.303Z,1029.22
2023-04-18T00:41:59.717Z,1029.22
2023-04-18T00:42:09.098Z,1029.31
2023-04-18T00:42:18.482Z,1029.17
2023-04-18T00:42:27.899Z,1029.20
2023-04-18T00:42:46.625Z,1029.18
2023-04-18T00:42:55.996Z,1029.25
2023-04-18T00:43:05.360Z,1029.22
2023-04-18T00:43:14.749Z,1029.21
2023-04-18T00:43:24.338Z,1029.19
2023-04-18T00:43:33.721Z,1029.21
2023-04-18T00:43:52.487Z,1029.21
2023-04-18T00:44:01.885Z,1029.17
2023-04-18T00:44:11.470Z,1029.19
2023-04-18T00:44:20.635Z,1029.10
2023-04-18T00:44:30.002Z,1029.14
2023-04-18T00:44:39.398Z,1029.20
2023-04-18T00:44:58.166Z,1029.20
2023-04-18T00:45:07.516Z,1029.24
2023-04-18T00:45:16.896Z,1029.21
2023-04-18T00:45:26.310Z,1029.21
2023-04-18T00:45:35.697Z,1029.17
2023-04-18T00:45:45.122Z,1029.20
2023-04-18T00:46:03.917Z,1029.25
2023-04-18T00:46:13.313Z,1029.19
2023-04-18T00:46:22.725Z,1029.18
2023-04-18T00:46:32.138Z,1029.22
2023-04-18T00:46:41.586Z,1029.21
2023-04-18T00:46:50.916Z,1029.26
2023-04-18T00:47:09.680Z,1029.26
2023-04-18T00:47:19.084Z,1029.16
2023-04-18T00:47:28.464Z,1029.19
2023-04-18T00:47:37.854Z,1029.22
2023-04-18T00:47:47.284Z,1029.13
2023-04-18T00:47:56.637Z,1029.18
2023-04-18T00:48:15.377Z,1029.20
2023-04-18T00:48:24.772Z,1029.15
2023-04-18T00:48:34.182Z,1029.17
2023-04-18T00:48:43.541Z,1029.14
2023-04-18T00:48:52.930Z,1029.23
2023-04-18T00:49:02.341Z,1029.24
2023-04-18T00:49:21.127Z,1029.14
2023-04-18T00:49:30.527Z,1029.21
2023-04-18T00:49:39.875Z,1029.22
2023-04-18T00:49:49.279Z,1029.23
2023-04-18T00:49:58.663Z,1029.21
2023-04-18T00:50:08.040Z,1029.19
2023-04-18T00:50:26.952Z,1029.14
2023-04-18T00:50:36.221Z,1029.10
2023-04-18T00:50:45.603Z,1029.16
2023-04-18T00:50:54.979Z,1029.20
2023-04-18T00:51:04.363Z,1029.20
2023-04-18T00:51:13.744Z,1029.18
2023-04-18T00:51:32.485Z,1029.16
2023-04-18T00:51:41.868Z,1029.14
2023-04-18T00:51:51.247Z,1029.15
2023-04-18T00:52:00.626Z,1029.05
2023-04-18T00:52:10.002Z,1029.09
2023-04-18T00:52:19.369Z,1029.17
2023-04-18T00:52:38.169Z,1029.13
2023-04-18T00:52:47.551Z,1029.13
2023-04-18T00:52:56.938Z,1029.11
2023-04-18T00:53:06.320Z,1029.18
2023-04-18T00:53:15.718Z,1029.12
2023-04-18T00:53:25.101Z,1029.21
2023-04-18T00:53:43.872Z,1029.15
2023-04-18T00:53:53.257Z,1029.17
2023-04-18T00:54:02.675Z,1029.19
2023-04-18T00:54:12.244Z,1029.23
2023-04-18T00:54:21.542Z,1029.12
2023-04-18T00:54:30.962Z,1029.20
2023-04-18T00:54:49.725Z,1029.22
2023-04-18T00:54:59.086Z,1029.19
2023-04-18T00:55:08.468Z,1029.12
2023-04-18T00:55:17.859Z,1029.11
2023-04-18T00:55:27.309Z,1029.13
2023-04-18T00:55:36.645Z,1029.16
2023-04-18T00:55:55.398Z,1029.18
2023-04-18T00:56:04.783Z,1029.21
2023-04-18T00:56:14.170Z,1029.16
2023-04-18T00:56:23.541Z,1029.08
2023-04-18T00:56:32.953Z,1029.16
2023-04-18T00:56:42.346Z,1029.12
2023-04-18T00:57:01.084Z,1029.18
2023-04-18T00:57:10.485Z,1029.20
2023-04-18T00:57:19.863Z,1029.14
2023-04-18T00:57:29.243Z,1029.12
2023-04-18T00:57:38.646Z,1029.16
2023-04-18T00:57:48.026Z,1029.09
2023-04-18T00:58:06.844Z,1029.09
2023-04-18T00:58:16.191Z,1029.10
2023-04-18T00:58:25.562Z,1029.07
2023-04-18T00:58:34.962Z,1029.21
2023-04-18T00:58:44.392Z,1029.08
2023-04-18T00:58:53.773Z,1029.19
2023-04-18T00:59:12.548Z,1029.14
2023-04-18T00:59:21.924Z,1029.11
2023-04-18T00:59:31.302Z,1029.14
2023-04-18T00:59:40.696Z,1029.11
2023-04-18T00:59:50.083Z,1029.16
2023-04-18T00:59:59.498Z,1029.13
2023-04-18T01:00:18.257Z,1029.12
2023-04-18T01:00:27.641Z,1029.14
2023-04-18T01:00:37.013Z,1029.15
2023-04-18T01:00:46.393Z,1029.11
2023-04-18T01:00:55.786Z,1029.20
2023-04-18T01:01:05.221Z,1029.15
2023-04-18T01:01:24.008Z,1029.09
2023-04-18T01:01:33.423Z,1029.13
2023-04-18T01:01:42.803Z,1029.06
2023-04-18T01:01:52.263Z,1029.10
2023-04-18T01:02:01.726Z,1029.13
2023-04-18T01:02:10.966Z,1029.02
2023-04-18T01:02:29.861Z,1029.13
2023-04-18T01:02:39.130Z,1029.06
2023-04-18T01:02:48.461Z,1029.06
2023-04-18T01:02:57.925Z,1029.13
2023-04-18T01:03:07.382Z,1029.05
2023-04-18T01:03:16.762Z,1029.07
2023-04-18T01:03:35.636Z,1029.13
2023-04-18T01:03:44.907Z,1029.10
2023-04-18T01:03:54.197Z,1029.08
2023-04-18T01:04:03.825Z,1029.11
2023-04-18T01:04:13.509Z,1029.01
2023-04-18T01:04:22.564Z,1029.10
2023-04-18T01:04:41.241Z,1029.12
2023-04-18T01:04:50.595Z,1029.11
2023-04-18T01:04:59.974Z,1029.07
2023-04-18T01:05:09.350Z,1029.10
2023-04-18T01:05:18.730Z,1029.11
2023-04-18T01:05:28.113Z,1029.17
2023-04-18T01:05:46.900Z,1029.10
2023-04-18T01:05:56.331Z,1029.16
2023-04-18T01:06:05.709Z,1029.11
2023-04-18T01:06:15.083Z,1029.12
2023-04-18T01:06:24.444Z,1029.08
2023-04-18T01:06:33.827Z,1029.10
2023-04-18T01:06:52.624Z,1029.14
2023-04-18T01:07:02.017Z,1029.13
2023-04-18T01:07:11.459Z,1029.10
2023-04-18T01:07:20.838Z,1029.08
2023-04-18T01:07:30.218Z,1029.10
2023-04-18T01:07:39.582Z,1029.10
2023-04-18T01:07:58.353Z,1029.08
2023-04-18T01:08:07.733Z,1029.11
2023-04-18T01:08:17.157Z,1029.14
2023-04-18T01:08:26.537Z,1029.16
2023-04-18T01:08:35.903Z,1029.09
2023-04-18T01:08:45.291Z,1029.13
2023-04-18T01:09:05.628Z,1029.16
2023-04-18T01:09:14.980Z,1029.08
2023-04-18T01:09:24.367Z,1029.15
2023-04-18T01:09:33.752Z,1029.14
2023-04-18T01:09:43.131Z,1029.18
2023-04-18T01:09:52.500Z,1029.20
2023-04-18T01:10:11.254Z,1029.14
2023-04-18T01:10:20.668Z,1029.11
2023-04-18T01:10:30.064Z,1029.22
2023-04-18T01:10:39.413Z,1029.17
2023-04-18T01:10:48.786Z,1029.17
2023-04-18T01:10:58.196Z,1029.08
2023-04-18T01:11:16.928Z,1029.20
2023-04-18T01:11:26.309Z,1029.18
2023-04-18T01:11:35.675Z,1029.14
2023-04-18T01:11:45.054Z,1029.10
2023-04-18T01:11:54.437Z,1029.11
2023-04-18T01:12:03.818Z,1029.19
2023-04-18T01:12:22.573Z,1029.15
2023-04-18T01:12:31.967Z,1029.21
2023-04-18T01:12:44.282Z,1029.22
2023-04-18T01:12:51.257Z,1029.16
2023-04-18T01:13:00.637Z,1029.21
2023-04-18T01:13:10.011Z,1029.17
2023-04-18T01:13:28.753Z,1029.24
2023-04-18T01:13:38.119Z,1029.15
2023-04-18T01:13:47.514Z,1029.18
2023-04-18T01:13:56.909Z,1029.17
2023-04-18T01:14:06.338Z,1029.27
2023-04-18T01:14:15.727Z,1029.22
2023-04-18T01:14:34.476Z,1029.17
2023-04-18T01:14:43.847Z,1029.21
2023-04-18T01:14:53.226Z,1029.21
2023-04-18T01:15:02.649Z,1029.13
2023-04-18T01:15:12.045Z,1029.21
2023-04-18T01:15:21.460Z,1029.22
2023-04-18T01:15:40.256Z,1029.25
2023-04-18T01:15:49.655Z,1029.17
2023-04-18T01:15:59.032Z,1029.15
2023-04-18T01:16:08.394Z,1029.16
2023-04-18T01:16:17.761Z,1029.22
2023-04-18T01:16:27.197Z,1029.21
2023-04-18T01:16:45.893Z,1029.18
2023-04-18T01:16:55.267Z,1029.22
2023-04-18T01:17:04.641Z,1029.23
2023-04-18T01:17:14.008Z,1029.21
2023-04-18T01:17:23.436Z,1029.18
2023-04-18T01:17:32.913Z,1029.21
2023-04-18T01:17:51.654Z,1029.27
2023-04-18T01:18:01.066Z,1029.29
2023-04-18T01:18:10.416Z,1029.24
2023-04-18T01:18:19.807Z,1029.24
2023-04-18T01:18:29.177Z,1029.23
2023-04-18T01:18:38.553Z,1029.22
2023-04-18T01:18:57.343Z,1029.18
2023-04-18T01:19:06.743Z,1029.20
2023-04-18T01:19:16.124Z,1029.26
2023-04-18T01:19:25.505Z,1029.26
2023-04-18T01:19:34.901Z,1029.23
2023-04-18T01:19:44.287Z,1029.22
2023-04-18T01:20:03.042Z,1029.26
2023-04-18T01:20:12.418Z,1029.23
2023-04-18T01:20:21.864Z,1029.18
2023-04-18T01:20:31.252Z,1029.23
2023-04-18T01:20:40.639Z,1029.23
2023-04-18T01:20:50.026Z,1029.22
2023-04-18T01:21:08.799Z,1029.19
2023-04-18T01:21:18.190Z,1029.28
2023-04-18T01:21:27.563Z,1029.24
2023-04-18T01:21:36.960Z,1029.24
2023-04-18T01:21:46.346Z,1029.13
2023-04-18T01:21:55.723Z,1029.19
2023-04-18T01:22:14.488Z,1029.21
2023-04-18T01:22:23.865Z,1029.26
2023-04-18T01:22:33.256Z,1029.24
2023-04-18T01:22:42.631Z,1029.19
2023-04-18T01:22:52.003Z,1029.21
2023-04-18T01:23:01.462Z,1029.23
2023-04-18T01:23:20.233Z,1029.19
2023-04-18T01:23:29.628Z,1029.24
2023-04-18T01:23:38.974Z,1029.26
2023-04-18T01:23:48.343Z,1029.21
2023-04-18T01:23:57.763Z,1029.20
2023-04-18T01:24:07.164Z,1029.24
2023-04-18T01:24:25.917Z,1029.26
2023-04-18T01:24:35.289Z,1029.26
2023-04-18T01:24:44.678Z,1029.22
2023-04-18T01:24:54.051Z,1029.26
2023-04-18T01:25:03.426Z,1029.22
2023-04-18T01:25:12.820Z,1029.23
2023-04-18T01:25:31.605Z,1029.18
2023-04-18T01:25:40.983Z,1029.31
2023-04-18T01:25:50.323Z,1029.21
2023-04-18T01:25:59.719Z,1029.23
2023-04-18T01:26:09.103Z,1029.23
2023-04-18T01:26:18.494Z,1029.18
2023-04-18T01:26:37.267Z,1029.17
2023-04-18T01:26:46.633Z,1029.25
2023-04-18T01:26:56.029Z,1029.28
2023-04-18T01:27:05.447Z,1029.18
2023-04-18T01:27:14.859Z,1029.25
2023-04-18T01:27:24.267Z,1029.23
2023-04-18T01:27:43.032Z,1029.20
2023-04-18T01:27:52.399Z,1029.20
2023-04-18T01:28:01.846Z,1029.14
2023-04-18T01:28:11.168Z,1029.16
2023-04-18T01:28:20.576Z,1029.24
2023-04-18T01:28:29.970Z,1029.14
2023-04-18T01:28:48.709Z,1029.19
2023-04-18T01:28:58.084Z,1029.23
2023-04-18T01:29:07.501Z,1029.22
2023-04-18T01:29:16.917Z,1029.22
2023-04-18T01:29:26.291Z,1029.17
2023-04-18T01:29:37.241Z,1029.17
2023-04-18T01:29:54.450Z,1029.21
2023-04-18T01:30:03.814Z,1029.27
2023-04-18T01:30:13.182Z,1029.23
2023-04-18T01:30:22.573Z,1029.20
2023-04-18T01:30:31.977Z,1029.21
2023-04-18T01:30:41.394Z,1029.22
2023-04-18T01:31:00.188Z,1029.17
2023-04-18T01:31:09.548Z,1029.16
2023-04-18T01:31:19.001Z,1029.21
2023-04-18T01:31:28.324Z,1029.14
2023-04-18T01:31:37.798Z,1029.18
2023-04-18T01:31:47.133Z,1029.17
2023-04-18T01:32:05.807Z,1029.11
2023-04-18T01:32:15.191Z,1029.16
2023-04-18T01:32:24.585Z,1029.20
2023-04-18T01:32:33.958Z,1029.21
2023-04-18T01:32:45.987Z,1029.19
2023-04-18T01:32:55.341Z,1029.23
2023-04-18T01:33:14.277Z,1029.20
2023-04-18T01:33:23.649Z,1029.13
2023-04-18T01:33:33.036Z,1029.13
2023-04-18T01:33:42.429Z,1029.21
2023-04-18T01:33:51.791Z,1029.25
2023-04-18T01:34:01.161Z,1029.24
2023-04-18T01:34:20.042Z,1029.17
2023-04-18T01:34:29.413Z,1029.22
2023-04-18T01:34:38.804Z,1029.18
2023-04-18T01:34:48.199Z,1029.15
2023-04-18T01:34:57.590Z,1029.20
2023-04-18T01:35:06.972Z,1029.16
2023-04-18T01:35:25.785Z,1029.20
2023-04-18T01:35:35.155Z,1029.17
2023-04-18T01:35:44.546Z,1029.13
2023-04-18T01:35:53.973Z,1029.16
2023-04-18T01:36:03.379Z,1029.17
2023-04-18T01:36:12.772Z,1029.20
2023-04-18T01:36:31.545Z,1029.16
2023-04-18T01:36:40.957Z,1029.13
2023-04-18T01:36:50.348Z,1029.21
2023-04-18T01:36:59.732Z,1029.16
2023-04-18T01:37:09.126Z,1029.15
2023-04-18T01:37:18.518Z,1029.22
2023-04-18T01:37:42.358Z,1029.19
2023-04-18T01:37:51.836Z,1029.16
2023-04-18T01:38:01.224Z,1029.18
2023-04-18T01:38:10.615Z,1029.18
2023-04-18T01:38:20.004Z,1029.15
2023-04-18T01:38:29.381Z,1029.21
2023-04-18T01:38:48.179Z,1029.17
2023-04-18T01:38:57.557Z,1029.23
2023-04-18T01:39:06.940Z,1029.20
2023-04-18T01:39:16.324Z,1029.22
2023-04-18T01:39:25.714Z,1029.21
2023-04-18T01:39:35.081Z,1029.23
2023-04-18T01:39:53.910Z,1029.22
2023-04-18T01:40:03.297Z,1029.16
2023-04-18T01:40:12.681Z,1029.18
2023-04-18T01:40:22.051Z,1029.27
2023-04-18T01:40:31.458Z,1029.15
2023-04-18T01:40:40.912Z,1029.21
2023-04-18T01:40:59.618Z,1029.20
2023-04-18T01:41:09.004Z,1029.22
2023-04-18T01:41:18.411Z,1029.21
2023-04-18T01:41:27.813Z,1029.17
2023-04-18T01:41:37.229Z,1029.19
2023-04-18T01:41:46.639Z,1029.23
2023-04-18T01:42:05.428Z,1029.24
2023-04-18T01:42:14.813Z,1029.23
2023-04-18T01:42:24.251Z,1029.24
2023-04-18T01:42:33.563Z,1029.25
2023-04-18T01:42:42.994Z,1029.21
2023-04-18T01:42:52.384Z,1029.20
2023-04-18T01:43:11.268Z,1029.23
2023-04-18T01:43:20.831Z,1029.20
2023-04-18T01:43:30.235Z,1029.26
2023-04-18T01:43:39.628Z,1029.22
2023-04-18T01:43:49.010Z,1029.22
2023-04-18T01:43:58.420Z,1029.14
2023-04-18T01:44:17.203Z,1029.13
2023-04-18T01:44:26.598Z,1029.16
2023-04-18T01:44:36.007Z,1029.18
2023-04-18T01:44:45.363Z,1029.19
2023-04-18T01:44:54.752Z,1029.12
2023-04-18T01:45:04.136Z,1029.24
2023-04-18T01:45:22.922Z,1029.20
2023-04-18T01:45:32.321Z,1029.13
2023-04-18T01:45:41.732Z,1029.18
2023-04-18T01:45:51.127Z,1029.18
2023-04-18T01:46:00.537Z,1029.19
2023-04-18T01:46:09.887Z,1029.14
2023-04-18T01:46:28.708Z,1029.18
2023-04-18T01:46:38.088Z,1029.12
2023-04-18T01:46:47.469Z,1029.21
2023-04-18T01:46:56.977Z,1029.16
2023-04-18T01:47:06.237Z,1029.16
2023-04-18T01:47:15.636Z,1029.24
2023-04-18T01:47:34.462Z,1029.18
2023-04-18T01:47:43.882Z,1029.18
2023-04-18T01:47:53.242Z,1029.14
2023-04-18T01:48:02.688Z,1029.20
2023-04-18T01:48:12.062Z,1029.17
2023-04-18T01:48:21.462Z,1029.24
2023-04-18T01:48:40.214Z,1029.20
2023-04-18T01:48:49.606Z,1029.19
2023-04-18T01:48:58.988Z,1029.19
2023-04-18T01:49:08.381Z,1029.24
2023-04-18T01:49:17.788Z,1029.24
2023-04-18T01:49:27.162Z,1029.19
2023-04-18T01:49:45.954Z,1029.25
2023-04-18T01:49:55.341Z,1029.24
2023-04-18T01:50:04.744Z,1029.26
2023-04-18T01:50:14.149Z,1029.26
2023-04-18T01:50:23.525Z,1029.19
2023-04-18T01:50:32.926Z,1029.21
2023-04-18T01:50:51.765Z,1029.16
2023-04-18T01:51:01.131Z,1029.23
2023-04-18T01:51:10.531Z,1029.19
2023-04-18T01:51:19.933Z,1029.20
2023-04-18T01:51:29.327Z,1029.18
2023-04-18T01:51:38.721Z,1029.15
2023-04-18T01:51:57.497Z,1029.23
2023-04-18T01:52:06.892Z,1029.18
2023-04-18T01:52:16.274Z,1029.15
2023-04-18T01:52:25.657Z,1029.13
2023-04-18T01:52:35.047Z,1029.17
2023-04-18T01:52:44.435Z,1029.17
2023-04-18T01:53:03.244Z,1029.16
2023-04-18T01:53:12.692Z,1029.18
2023-04-18T01:53:22.104Z,1029.11
2023-04-18T01:53:31.542Z,1029.17
2023-04-18T01:53:40.930Z,1029.14
2023-04-18T01:53:50.321Z,1029.17
2023-04-18T01:54:09.088Z,1029.17
2023-04-18T01:54:18.513Z,1029.16
2023-04-18T01:54:27.904Z,1029.16
2023-04-18T01:54:37.296Z,1029.16
2023-04-18T01:54:46.699Z,1029.21
2023-04-18T01:54:56.102Z,1029.13
2023-04-18T01:55:14.896Z,1029.15
2023-04-18T01:55:24.368Z,1029.11
2023-04-18T01:55:33.720Z,1029.11
2023-04-18T01:55:43.111Z,1029.13
2023-04-18T01:55:52.508Z,1029.10
2023-04-18T01:56:01.888Z,1029.11
2023-04-18T01:56:20.682Z,1029.11
2023-04-18T01:56:30.092Z,1029.09
2023-04-18T01:56:39.480Z,1029.15
2023-04-18T01:56:48.861Z,1029.17
2023-04-18T01:56:58.245Z,1029.11
2023-04-18T01:57:07.648Z,1029.11
2023-04-18T01:57:26.423Z,1029.22
2023-04-18T01:57:35.797Z,1029.19
2023-04-18T01:57:45.195Z,1029.08
2023-04-18T01:57:54.599Z,1029.10
2023-04-18T01:58:03.985Z,1029.10
2023-04-18T01:58:13.354Z,1029.03
2023-04-18T01:58:32.187Z,1029.04
2023-04-18T01:58:41.594Z,1029.13
2023-04-18T01:58:50.951Z,1029.15
2023-04-18T01:59:00.323Z,1029.04
2023-04-18T01:59:09.691Z,1029.13
2023-04-18T01:59:19.178Z,1029.09
2023-04-18T01:59:37.966Z,1029.04
2023-04-18T01:59:47.381Z,1029.12
2023-04-18T01:59:56.797Z,1029.20
2023-04-18T02:00:06.247Z,1029.19
2023-04-18T02:00:15.657Z,1029.13
2023-04-18T02:00:25.061Z,1029.11
2023-04-18T02:00:43.914Z,1029.02
2023-04-18T02:00:53.317Z,1029.12
2023-04-18T02:01:02.779Z,1029.10
2023-04-18T02:01:12.118Z,1029.10
2023-04-18T02:01:21.630Z,1029.14
2023-04-18T02:01:30.892Z,1029.11
2023-04-18T02:01:49.702Z,1029.13
2023-04-18T02:01:59.130Z,1029.15
2023-04-18T02:02:08.569Z,1029.10
2023-04-18T02:02:17.903Z,1029.15
2023-04-18T02:02:27.379Z,1029.19
2023-04-18T02:02:36.759Z,1029.07
2023-04-18T02:02:55.546Z,1029.16
2023-04-18T02:03:05.038Z,1029.15
2023-04-18T02:03:14.355Z,1029.13
2023-04-18T02:03:23.723Z,1029.17
2023-04-18T02:03:33.202Z,1029.17
2023-04-18T02:03:42.475Z,1029.18
2023-04-18T02:04:01.166Z,1029.16
2023-04-18T02:04:10.547Z,1029.20
2023-04-18T02:04:20.003Z,1029.17
2023-04-18T02:04:29.338Z,1029.14
2023-04-18T02:04:38.714Z,1029.20
2023-04-18T02:04:48.128Z,1029.20
2023-04-18T02:05:06.934Z,1029.18
2023-04-18T02:05:16.333Z,1029.21
2023-04-18T02:05:25.736Z,1029.20
2023-04-18T02:05:35.116Z,1029.12
2023-04-18T02:05:44.499Z,1029.09
2023-04-18T02:05:53.884Z,1029.18
2023-04-18T02:06:12.649Z,1029.20
2023-04-18T02:06:22.054Z,1029.16
2023-04-18T02:06:31.474Z,1029.20
2023-04-18T02:06:40.866Z,1029.24
2023-04-18T02:06:50.264Z,1029.14
2023-04-18T02:06:59.664Z,1029.17
2023-04-18T02:07:18.460Z,1029.18
2023-04-18T02:07:27.845Z,1029.15
2023-04-18T02:07:37.228Z,1029.18
2023-04-18T02:07:46.615Z,1029.10
2023-04-18T02:07:56.077Z,1029.19
2023-04-18T02:08:05.432Z,1029.17
2023-04-18T02:08:24.205Z,1029.17
2023-04-18T02:08:33.600Z,1029.12
2023-04-18T02:08:42.999Z,1029.20
2023-04-18T02:08:52.395Z,1029.16
2023-04-18T02:09:01.787Z,1029.09
2023-04-18T02:09:11.216Z,1029.11
2023-04-18T02:09:29.972Z,1029.12
2023-04-18T02:09:39.350Z,1029.10
2023-04-18T02:09:48.734Z,1029.15
2023-04-18T02:09:58.130Z,1029.12
2023-04-18T02:10:07.562Z,1029.15
2023-04-18T02:10:16.921Z,1029.11
2023-04-18T02:10:35.685Z,1029.15
2023-04-18T02:10:45.054Z,1029.12
2023-04-18T02:10:54.451Z,1029.11
2023-04-18T02:11:03.837Z,1029.15
2023-04-18T02:11:13.216Z,1029.07
2023-04-18T02:11:22.608Z,1029.12
2023-04-18T02:11:41.402Z,1029.12
2023-04-18T02:11:50.789Z,1029.10
2023-04-18T02:12:00.195Z,1029.14
2023-04-18T02:12:09.576Z,1029.12
2023-04-18T02:12:18.948Z,1029.08
2023-04-18T02:12:28.332Z,1029.13
2023-04-18T02:12:47.112Z,1029.14